createdAt,value
2022-10-10T00:01:20.113Z,17.35
2022-10-10T00:03:47.972Z,17.61
2022-10-10T00:06:15.936Z,18.30
2022-10-10T00:08:44.245Z,18.22
2022-10-10T00:11:13.302Z,16.88
2022-10-10T00:13:41.090Z,17.00
2022-10-10T00:16:09.365Z,17.20
2022-10-10T00:18:38.055Z,16.86
2022-10-10T00:21:06.528Z,17.52
2022-10-10T00:23:33.950Z,17.60
2022-10-10T00:26:05.571Z,18.12
2022-10-10T00:28:38.525Z,17.86
2022-10-10T00:31:08.817Z,16.89
2022-10-10T00:33:37.286Z,17.59
2022-10-10T00:36:05.639Z,17.86
2022-10-10T00:38:33.396Z,18.10
2022-10-10T00:41:00.929Z,18.11
2022-10-10T00:43:29.085Z,18.12
2022-10-10T00:45:56.774Z,18.27
2022-10-10T00:48:40.289Z,18.25
2022-10-10T00:51:17.070Z,17.83
2022-10-10T00:53:53.238Z,17.79
2022-10-10T00:56:25.146Z,18.53
2022-10-10T00:58:54.771Z,18.13
2022-10-10T01:01:22.588Z,18.03
2022-10-10T01:03:49.948Z,17.94
2022-10-10T01:06:17.414Z,17.64
2022-10-10T01:08:45.137Z,17.39
2022-10-10T01:11:34.390Z,17.51
2022-10-10T01:14:11.315Z,17.16
2022-10-10T01:16:50.544Z,17.39
2022-10-10T01:19:24.208Z,17.68
2022-10-10T01:22:08.617Z,17.00
2022-10-10T01:24:56.656Z,17.03
2022-10-10T01:27:41.979Z,17.52
2022-10-10T01:30:11.633Z,17.58
2022-10-10T01:32:56.078Z,17.14
2022-10-10T01:35:41.927Z,17.06
2022-10-10T01:38:17.629Z,16.57
2022-10-10T01:40:53.992Z,16.68
2022-10-10T01:43:21.353Z,16.99
2022-10-10T01:45:51.296Z,16.90
2022-10-10T01:48:27.450Z,17.53
2022-10-10T01:51:07.127Z,17.37
2022-10-10T01:53:52.971Z,16.64
2022-10-10T01:56:44.811Z,15.28
2022-10-10T01:59:49.960Z,15.69
2022-10-10T02:02:41.857Z,16.35
2022-10-10T02:05:15.981Z,17.00
2022-10-10T02:07:52.357Z,15.67
2022-10-10T02:10:24.251Z,16.50
2022-10-10T02:12:52.148Z,16.24
2022-10-10T02:15:22.331Z,16.46
2022-10-10T02:17:50.862Z,16.92
2022-10-10T02:20:21.212Z,16.61
2022-10-10T02:22:50.477Z,16.59
2022-10-10T02:25:22.630Z,16.24
2022-10-10T02:27:58.358Z,16.24
2022-10-10T02:30:26.120Z,17.19
2022-10-10T02:33:01.222Z,16.92
2022-10-10T02:35:29.560Z,15.73
2022-10-10T02:37:58.902Z,16.78
2022-10-10T02:40:29.137Z,16.98
2022-10-10T02:42:57.922Z,17.07
2022-10-10T02:45:25.843Z,16.98
2022-10-10T02:47:53.536Z,17.45
2022-10-10T02:50:22.303Z,17.22
2022-10-10T02:52:49.801Z,16.71
2022-10-10T02:55:17.494Z,16.85
2022-10-10T02:57:45.117Z,16.54
2022-10-10T03:00:13.099Z,17.38
2022-10-10T03:02:40.451Z,16.37
2022-10-10T03:05:08.596Z,16.66
2022-10-10T03:07:36.165Z,17.14
2022-10-10T03:10:06.169Z,16.11
2022-10-10T03:12:34.908Z,16.12
2022-10-10T03:15:02.593Z,16.79
2022-10-10T03:17:30.080Z,16.37
2022-10-10T03:19:57.703Z,16.16
2022-10-10T03:22:25.091Z,15.91
2022-10-10T03:24:52.437Z,15.47
2022-10-10T03:27:20.069Z,16.04
2022-10-10T03:29:47.424Z,15.68
2022-10-10T03:32:14.753Z,15.85
2022-10-10T03:34:42.363Z,15.79
2022-10-10T03:37:09.793Z,15.79
2022-10-10T03:39:37.565Z,16.66
2022-10-10T03:42:05.250Z,15.37
2022-10-10T03:44:32.770Z,15.94
2022-10-10T03:47:00.150Z,16.18
2022-10-10T03:49:27.816Z,15.47
2022-10-10T03:51:55.218Z,15.33
2022-10-10T03:54:22.620Z,16.47
2022-10-10T03:56:50.240Z,16.36
2022-10-10T03:59:17.612Z,15.53
2022-10-10T04:01:45.014Z,16.50
2022-10-10T04:04:12.714Z,15.03
2022-10-10T04:06:40.181Z,14.67
2022-10-10T04:09:07.629Z,15.02
2022-10-10T04:11:37.021Z,15.49
2022-10-10T04:14:04.414Z,14.22
2022-10-10T04:16:31.753Z,14.54
2022-10-10T04:18:59.378Z,15.33
2022-10-10T04:21:26.777Z,14.96
2022-10-10T04:23:54.128Z,14.74
2022-10-10T04:26:21.760Z,15.71
2022-10-10T04:28:49.239Z,15.39
2022-10-10T04:31:16.640Z,14.11
2022-10-10T04:33:44.379Z,13.69
2022-10-10T04:36:11.839Z,13.87
2022-10-10T04:38:39.175Z,15.24
2022-10-10T04:41:07.094Z,15.02
2022-10-10T04:43:34.519Z,14.96
2022-10-10T04:46:02.063Z,15.28
2022-10-10T04:48:29.736Z,14.87
2022-10-10T04:50:58.458Z,15.20
2022-10-10T04:53:26.947Z,15.52
2022-10-10T04:55:54.583Z,15.47
2022-10-10T04:58:21.950Z,15.71
2022-10-10T05:00:53.357Z,16.06
2022-10-10T05:03:22.195Z,15.66
2022-10-10T05:05:50.119Z,16.58
2022-10-10T05:08:18.323Z,15.67
2022-10-10T05:10:46.925Z,15.48
2022-10-10T05:13:15.580Z,15.42
2022-10-10T05:15:43.333Z,16.00
2022-10-10T05:18:11.225Z,15.65
2022-10-10T05:20:38.620Z,16.34
2022-10-10T05:23:06.069Z,16.24
2022-10-10T05:25:33.715Z,15.78
2022-10-10T05:28:01.083Z,16.10
2022-10-10T05:30:28.422Z,16.14
2022-10-10T05:32:56.272Z,16.67
2022-10-10T05:35:23.675Z,16.73
2022-10-10T05:37:51.034Z,17.34
2022-10-10T05:40:18.679Z,17.49
2022-10-10T05:42:47.105Z,17.27
2022-10-10T05:45:14.485Z,17.29
2022-10-10T05:47:42.154Z,17.56
2022-10-10T05:50:22.904Z,17.33
2022-10-10T05:52:51.083Z,17.39
2022-10-10T05:55:18.615Z,17.53
2022-10-10T05:57:46.384Z,16.98
2022-10-10T06:00:14.079Z,17.09
2022-10-10T06:02:41.802Z,17.00
2022-10-10T06:05:09.434Z,16.98
2022-10-10T06:08:02.530Z,17.45
2022-10-10T06:10:24.655Z,17.34
2022-10-10T06:12:52.321Z,17.37
2022-10-10T06:15:19.799Z,17.13
2022-10-10T06:17:47.478Z,17.85
2022-10-10T06:20:14.858Z,17.66
2022-10-10T06:22:42.202Z,16.37
2022-10-10T06:25:29.000Z,16.77
2022-10-10T06:27:57.270Z,17.01
2022-10-10T06:30:25.054Z,16.51
2022-10-10T06:32:56.480Z,16.84
2022-10-10T06:35:24.850Z,17.30
2022-10-10T06:37:52.220Z,16.63
2022-10-10T06:40:19.644Z,16.59
2022-10-10T06:42:47.259Z,17.06
2022-10-10T06:45:14.688Z,16.33
2022-10-10T06:47:42.108Z,16.52
2022-10-10T06:50:09.786Z,17.56
2022-10-10T06:52:37.135Z,16.59
2022-10-10T06:55:04.960Z,16.80
2022-10-10T06:57:32.714Z,16.55
2022-10-10T07:00:00.112Z,17.19
2022-10-10T07:02:28.622Z,17.79
2022-10-10T07:04:56.277Z,17.10
2022-10-10T07:07:23.607Z,17.59
2022-10-10T07:09:50.920Z,17.23
2022-10-10T07:12:18.564Z,17.51
2022-10-10T07:14:45.940Z,17.04
2022-10-10T07:17:13.286Z,17.75
2022-10-10T07:19:40.907Z,18.42
2022-10-10T07:22:08.266Z,18.08
2022-10-10T07:24:36.982Z,17.83
2022-10-10T07:27:08.638Z,17.71
2022-10-10T07:29:36.299Z,18.71
2022-10-10T07:32:03.655Z,18.61
2022-10-10T07:34:31.739Z,17.50
2022-10-10T07:36:59.084Z,18.45
2022-10-10T07:39:26.440Z,17.96
2022-10-10T07:41:54.072Z,18.40
2022-10-10T07:44:23.584Z,17.52
2022-10-10T07:46:50.919Z,17.52
2022-10-10T07:49:18.581Z,17.51
2022-10-10T07:51:46.024Z,17.51
2022-10-10T07:54:13.421Z,17.84
2022-10-10T07:56:41.032Z,17.60
2022-10-10T07:59:08.419Z,17.36
2022-10-10T08:01:35.840Z,17.62
2022-10-10T08:04:03.572Z,17.94
2022-10-10T08:06:30.910Z,18.19
2022-10-10T08:08:58.307Z,18.23
2022-10-10T08:11:25.932Z,18.43
2022-10-10T08:13:53.316Z,18.26
2022-10-10T08:16:20.852Z,18.63
2022-10-10T08:18:48.506Z,18.92
2022-10-10T08:21:16.423Z,18.77
2022-10-10T08:23:44.065Z,18.27
2022-10-10T08:26:13.512Z,18.42
2022-10-10T08:28:41.267Z,18.38
2022-10-10T08:31:14.515Z,17.94
2022-10-10T08:33:43.316Z,18.16
2022-10-10T08:36:13.502Z,18.80
2022-10-10T08:38:40.956Z,18.43
2022-10-10T08:41:11.359Z,18.99
2022-10-10T08:43:45.711Z,19.27
2022-10-10T08:46:18.941Z,19.40
2022-10-10T08:48:46.719Z,19.89
2022-10-10T08:51:21.842Z,20.60
2022-10-10T08:53:52.231Z,20.44
2022-10-10T08:56:26.766Z,20.19
2022-10-10T08:58:59.070Z,20.89
2022-10-10T09:01:36.667Z,20.41
2022-10-10T09:04:24.454Z,21.06
2022-10-10T09:07:37.851Z,20.06
2022-10-10T09:10:28.285Z,21.57
2022-10-10T09:13:02.056Z,21.70
2022-10-10T09:15:41.562Z,21.83
2022-10-10T09:18:38.512Z,21.52
2022-10-10T09:21:34.028Z,22.18
2022-10-10T09:24:24.195Z,21.85
2022-10-10T09:26:56.709Z,22.84
2022-10-10T09:29:33.253Z,22.79
2022-10-10T09:32:12.172Z,22.23
2022-10-10T09:34:43.106Z,23.00
2022-10-10T09:37:45.671Z,23.04
2022-10-10T09:40:14.314Z,23.63
2022-10-10T09:42:43.802Z,23.93
2022-10-10T09:45:24.826Z,23.33
2022-10-10T09:47:55.238Z,22.64
2022-10-10T09:50:23.909Z,23.50
2022-10-10T09:52:52.074Z,23.91
2022-10-10T09:55:22.369Z,24.38
2022-10-10T09:57:52.046Z,24.74
2022-10-10T10:00:19.623Z,24.10
2022-10-10T10:03:04.542Z,24.80
2022-10-10T10:05:31.849Z,24.80
2022-10-10T10:07:59.412Z,24.43
2022-10-10T10:10:27.695Z,24.88
2022-10-10T10:12:55.651Z,24.74
2022-10-10T10:15:25.462Z,25.04
2022-10-10T10:18:19.450Z,24.97
2022-10-10T10:20:52.634Z,25.97
2022-10-10T10:23:56.464Z,26.13
2022-10-10T10:26:29.227Z,26.18
2022-10-10T10:28:58.039Z,25.95
2022-10-10T10:31:47.853Z,25.88
2022-10-10T10:34:36.939Z,26.04
2022-10-10T10:37:12.731Z,26.21
2022-10-10T10:40:17.963Z,26.29
2022-10-10T10:43:06.959Z,25.24
2022-10-10T10:46:16.204Z,25.72
2022-10-10T10:49:03.381Z,26.76
2022-10-10T10:51:39.734Z,26.95
2022-10-10T10:54:40.482Z,26.62
2022-10-10T10:57:36.880Z,27.20
2022-10-10T11:00:47.254Z,26.83
2022-10-10T11:05:18.328Z,27.55
2022-10-10T11:06:54.237Z,27.46
2022-10-10T11:09:55.016Z,26.43
2022-10-10T11:12:51.060Z,26.13
2022-10-10T11:15:23.981Z,26.61
2022-10-10T11:18:01.626Z,26.30
2022-10-10T11:20:36.277Z,26.90
2022-10-10T11:23:43.033Z,27.38
2022-10-10T11:26:19.423Z,26.73
2022-10-10T11:28:59.377Z,26.53
2022-10-10T11:31:31.998Z,26.54
2022-10-10T11:34:05.148Z,27.17
2022-10-10T11:36:35.484Z,26.48
2022-10-10T11:39:39.634Z,26.81
2022-10-10T11:42:15.236Z,26.97
2022-10-10T11:44:46.645Z,27.42
2022-10-10T11:47:35.865Z,27.81
2022-10-10T11:50:12.604Z,27.48
2022-10-10T11:52:53.182Z,26.72
2022-10-10T11:55:29.048Z,26.96
2022-10-10T11:58:26.238Z,27.01
2022-10-10T12:01:02.069Z,27.79
2022-10-10T12:03:29.784Z,27.55
2022-10-10T12:06:07.862Z,27.99
2022-10-10T12:08:44.107Z,27.83
2022-10-10T12:11:33.758Z,27.46
2022-10-10T12:14:15.637Z,27.21
2022-10-10T12:16:43.313Z,27.06
2022-10-10T12:19:20.027Z,26.76
2022-10-10T12:21:59.612Z,27.42
2022-10-10T12:24:31.181Z,27.24
2022-10-10T12:26:58.386Z,25.92
2022-10-10T12:30:08.034Z,27.25
2022-10-10T12:32:43.689Z,27.19
2022-10-10T12:35:41.773Z,27.97
2022-10-10T12:38:23.897Z,28.19
2022-10-10T12:40:57.450Z,27.80
2022-10-10T12:43:52.203Z,26.40
2022-10-10T12:46:32.453Z,27.20
2022-10-10T12:49:14.220Z,27.16
2022-10-10T12:51:42.226Z,26.43
2022-10-10T12:54:22.666Z,26.94
2022-10-10T12:56:52.552Z,25.48
2022-10-10T12:59:24.055Z,26.43
2022-10-10T13:01:57.603Z,25.73
2022-10-10T13:04:26.061Z,25.60
2022-10-10T13:06:56.204Z,26.05
2022-10-10T13:09:35.349Z,26.19
2022-10-10T13:12:06.083Z,26.58
2022-10-10T13:14:42.877Z,26.31
2022-10-10T13:17:21.743Z,26.45
2022-10-10T13:19:49.868Z,26.13
2022-10-10T13:22:18.390Z,25.77
2022-10-10T13:24:46.087Z,26.00
2022-10-10T13:27:22.070Z,26.01
2022-10-10T13:29:50.149Z,25.70
2022-10-10T13:32:21.419Z,25.83
2022-10-10T13:34:53.328Z,25.73
2022-10-10T13:37:21.075Z,25.96
2022-10-10T13:39:50.749Z,25.60
2022-10-10T13:42:36.901Z,26.68
2022-10-10T13:45:46.065Z,26.24
2022-10-10T13:48:27.758Z,26.21
2022-10-10T13:51:08.758Z,26.43
2022-10-10T13:53:43.554Z,26.35
2022-10-10T13:56:31.619Z,26.53
2022-10-10T13:59:08.051Z,26.27
2022-10-10T14:01:45.052Z,26.51
2022-10-10T14:04:12.738Z,26.45
2022-10-10T14:07:12.089Z,26.36
2022-10-10T14:09:50.000Z,25.85
2022-10-10T14:12:30.543Z,25.40
2022-10-10T14:14:59.511Z,25.81
2022-10-10T14:17:27.525Z,26.22
2022-10-10T14:19:55.643Z,26.52
2022-10-10T14:22:23.704Z,26.61
2022-10-10T14:24:51.351Z,26.58
2022-10-10T14:27:22.363Z,26.48
2022-10-10T14:29:51.062Z,25.89
2022-10-10T14:32:19.140Z,26.24
2022-10-10T14:34:47.424Z,25.77
2022-10-10T14:37:41.334Z,26.11
2022-10-10T14:40:29.442Z,26.20
2022-10-10T14:42:57.201Z,26.76
2022-10-10T14:45:25.236Z,26.42
2022-10-10T14:47:52.585Z,25.20
2022-10-10T14:50:23.213Z,25.73
2022-10-10T14:52:50.738Z,25.92
2022-10-10T14:55:18.360Z,25.81
2022-10-10T14:57:46.016Z,25.88
2022-10-10T15:00:19.046Z,25.73
2022-10-10T15:02:47.003Z,25.45
2022-10-10T15:05:15.443Z,25.66
2022-10-10T15:07:42.976Z,25.44
2022-10-10T15:10:33.405Z,25.39
2022-10-10T15:13:00.133Z,25.42
2022-10-10T15:15:28.050Z,25.55
2022-10-10T15:17:58.702Z,25.60
2022-10-10T15:20:31.364Z,25.57
2022-10-10T15:23:01.101Z,25.41
2022-10-10T15:25:33.291Z,25.48
2022-10-10T15:28:04.765Z,25.02
2022-10-10T15:30:32.488Z,25.23
2022-10-10T15:33:00.114Z,25.35
2022-10-10T15:35:44.648Z,24.16
2022-10-10T15:38:16.453Z,24.13
2022-10-10T15:40:44.172Z,24.24
2022-10-10T15:43:11.497Z,24.67
2022-10-10T15:46:01.624Z,24.50
2022-10-10T15:48:31.056Z,24.23
2022-10-10T15:50:58.648Z,24.55
2022-10-10T15:53:28.562Z,24.17
2022-10-10T15:55:56.342Z,24.32
2022-10-10T15:58:23.692Z,24.42
2022-10-10T16:00:51.259Z,24.22
2022-10-10T16:03:20.032Z,23.73
2022-10-10T16:05:47.366Z,23.90
2022-10-10T16:08:15.045Z,23.54
2022-10-10T16:10:43.584Z,24.05
2022-10-10T16:13:11.474Z,24.33
2022-10-10T16:15:38.903Z,24.82
2022-10-10T16:18:06.783Z,24.48
2022-10-10T16:20:34.141Z,24.31
2022-10-10T16:23:01.522Z,23.63
2022-10-10T16:25:29.133Z,23.50
2022-10-10T16:27:56.732Z,23.45
2022-10-10T16:30:24.385Z,23.49
2022-10-10T16:32:52.078Z,23.19
2022-10-10T16:35:19.689Z,23.38
2022-10-10T16:37:47.097Z,23.30
2022-10-10T16:40:14.734Z,23.16
2022-10-10T16:42:42.117Z,23.16
2022-10-10T16:45:10.581Z,23.42
2022-10-10T16:47:38.745Z,23.24
2022-10-10T16:50:06.582Z,23.13
2022-10-10T16:52:38.261Z,23.34
2022-10-10T16:55:07.566Z,23.07
2022-10-10T16:57:36.280Z,23.12
2022-10-10T17:00:05.763Z,23.08
2022-10-10T17:02:33.672Z,23.13
2022-10-10T17:05:01.369Z,22.89
2022-10-10T17:07:28.791Z,22.95
2022-10-10T17:09:56.495Z,22.91
2022-10-10T17:12:23.873Z,22.96
2022-10-10T17:14:51.313Z,23.00
2022-10-10T17:17:19.490Z,22.81
2022-10-10T17:19:49.237Z,23.03
2022-10-10T17:22:17.058Z,23.09
2022-10-10T17:24:44.720Z,22.67
2022-10-10T17:27:12.247Z,22.59
2022-10-10T17:29:40.119Z,22.83
2022-10-10T17:32:07.904Z,22.61
2022-10-10T17:34:35.359Z,22.61
2022-10-10T17:37:03.663Z,22.40
2022-10-10T17:39:31.953Z,21.88
2022-10-10T17:42:00.305Z,21.82
2022-10-10T17:44:28.093Z,22.41
2022-10-10T17:46:55.789Z,22.45
2022-10-10T17:49:23.427Z,22.21
2022-10-10T17:51:50.936Z,22.41
2022-10-10T17:54:19.154Z,22.21
2022-10-10T17:56:46.747Z,21.84
2022-10-10T17:59:14.227Z,21.04
2022-10-10T18:01:42.241Z,20.42
2022-10-10T18:04:11.161Z,20.64
2022-10-10T18:06:38.525Z,20.04
2022-10-10T18:09:06.266Z,19.69
2022-10-10T18:11:33.878Z,20.27
2022-10-10T18:14:01.355Z,20.32
2022-10-10T18:16:32.959Z,20.98
2022-10-10T18:19:04.190Z,20.94
2022-10-10T18:21:31.893Z,20.70
2022-10-10T18:24:01.047Z,20.74
2022-10-10T18:26:30.006Z,20.88
2022-10-10T18:28:58.190Z,20.80
2022-10-10T18:31:28.665Z,20.78
2022-10-10T18:33:56.847Z,20.39
2022-10-10T18:36:27.424Z,19.99
2022-10-10T18:38:58.605Z,20.12
2022-10-10T18:41:30.559Z,20.19
2022-10-10T18:43:57.973Z,20.48
2022-10-10T18:46:25.934Z,20.18
2022-10-10T18:48:54.346Z,20.08
2022-10-10T18:51:24.798Z,18.55
2022-10-10T18:53:56.452Z,17.71
2022-10-10T18:56:26.731Z,16.94
2022-10-10T18:58:57.561Z,16.50
2022-10-10T19:01:26.682Z,15.84
2022-10-10T19:03:55.308Z,16.89
2022-10-10T19:06:24.182Z,17.74
2022-10-10T19:08:54.368Z,18.22
2022-10-10T19:11:28.686Z,19.86
2022-10-10T19:13:58.272Z,19.83
2022-10-10T19:16:26.120Z,20.59
2022-10-10T19:18:58.094Z,20.66
2022-10-10T19:21:28.090Z,20.04
2022-10-10T19:23:55.586Z,19.25
2022-10-10T19:26:23.041Z,17.84
2022-10-10T19:28:50.973Z,15.84
2022-10-10T19:31:20.364Z,16.45
2022-10-10T19:33:51.695Z,17.24
2022-10-10T19:36:19.993Z,18.09
2022-10-10T19:38:47.559Z,19.31
2022-10-10T19:41:15.088Z,19.78
2022-10-10T19:43:44.045Z,19.81
2022-10-10T19:46:13.841Z,19.75
2022-10-10T19:48:41.368Z,17.97
2022-10-10T19:51:12.795Z,16.06
2022-10-10T19:53:41.892Z,17.99
2022-10-10T19:56:14.372Z,19.71
2022-10-10T19:58:43.291Z,20.95
2022-10-10T20:01:13.902Z,20.73
2022-10-10T20:03:42.839Z,20.37
2022-10-10T20:06:10.443Z,19.25
2022-10-10T20:08:38.576Z,19.63
2022-10-10T20:11:06.603Z,20.17
2022-10-10T20:13:34.725Z,20.52
2022-10-10T20:16:04.285Z,20.37
2022-10-10T20:18:34.457Z,19.65
2022-10-10T20:21:16.358Z,20.14
2022-10-10T20:23:46.093Z,20.27
2022-10-10T20:26:16.858Z,20.23
2022-10-10T20:28:45.046Z,19.15
2022-10-10T20:31:21.455Z,18.56
2022-10-10T20:33:50.562Z,18.22
2022-10-10T20:36:18.831Z,17.43
2022-10-10T20:38:52.809Z,17.36
2022-10-10T20:41:21.491Z,15.48
2022-10-10T20:43:49.001Z,14.45
2022-10-10T20:46:16.467Z,14.69
2022-10-10T20:48:44.205Z,16.36
2022-10-10T20:51:13.240Z,15.22
2022-10-10T20:53:43.996Z,16.68
2022-10-10T20:56:12.889Z,17.30
2022-10-10T20:58:40.906Z,17.66
2022-10-10T21:01:13.743Z,17.90
2022-10-10T21:03:42.884Z,19.59
2022-10-10T21:06:13.298Z,18.94
2022-10-10T21:08:41.691Z,18.70
2022-10-10T21:11:11.302Z,18.94
2022-10-10T21:13:40.922Z,18.91
2022-10-10T21:16:13.959Z,17.06
2022-10-10T21:18:44.522Z,17.42
2022-10-10T21:21:17.589Z,20.12
2022-10-10T21:23:46.496Z,19.71
2022-10-10T21:26:20.201Z,20.14
2022-10-10T21:28:52.705Z,20.79
2022-10-10T21:31:23.533Z,19.64
2022-10-10T21:33:51.828Z,19.19
2022-10-10T21:36:20.413Z,19.38
2022-10-10T21:38:48.026Z,19.46
2022-10-10T21:41:21.744Z,20.75
2022-10-10T21:43:54.876Z,20.22
2022-10-10T21:46:27.784Z,19.87
2022-10-10T21:48:56.975Z,19.86
2022-10-10T21:51:25.508Z,19.93
2022-10-10T21:53:55.331Z,18.44
2022-10-10T21:56:22.797Z,19.93
2022-10-10T21:58:50.436Z,21.39
2022-10-10T22:01:20.010Z,21.83
2022-10-10T22:03:49.640Z,21.17
2022-10-10T22:06:19.519Z,20.56
2022-10-10T22:08:47.580Z,19.67
2022-10-10T22:11:21.852Z,19.83
2022-10-10T22:13:49.531Z,18.38
2022-10-10T22:16:17.416Z,17.62
2022-10-10T22:18:44.873Z,16.52
2022-10-10T22:21:15.278Z,17.17
2022-10-10T22:23:44.270Z,16.56
2022-10-10T22:26:13.611Z,16.50
2022-10-10T22:28:41.053Z,15.73
2022-10-10T22:31:11.333Z,15.97
2022-10-10T22:33:39.091Z,15.08
2022-10-10T22:36:07.356Z,17.02
2022-10-10T22:38:40.919Z,17.05
2022-10-10T22:41:08.957Z,17.19
2022-10-10T22:43:36.617Z,16.52
2022-10-10T22:46:04.256Z,16.23
2022-10-10T22:48:32.016Z,16.52
2022-10-10T22:51:06.073Z,17.01
2022-10-10T22:53:34.119Z,17.90
2022-10-10T22:56:02.253Z,18.18
2022-10-10T22:58:31.855Z,17.42
2022-10-10T23:01:11.710Z,17.12
2022-10-10T23:03:39.519Z,17.37
2022-10-10T23:06:07.547Z,17.19
2022-10-10T23:08:35.628Z,17.02
2022-10-10T23:11:03.845Z,17.22
2022-10-10T23:13:31.807Z,17.45
2022-10-10T23:15:59.262Z,17.97
2022-10-10T23:18:28.251Z,17.34
2022-10-10T23:20:55.996Z,17.41
2022-10-10T23:23:23.815Z,17.08
2022-10-10T23:25:51.791Z,17.09
2022-10-10T23:28:19.559Z,16.52
2022-10-10T23:30:48.318Z,17.17
2022-10-10T23:33:17.042Z,17.01
2022-10-10T23:35:44.516Z,16.39
2022-10-10T23:38:31.941Z,17.09
2022-10-10T23:41:19.556Z,17.14
2022-10-10T23:44:07.684Z,16.90
2022-10-10T23:46:51.834Z,17.68
2022-10-10T23:49:36.164Z,18.14
2022-10-10T23:52:19.711Z,18.12
2022-10-10T23:55:02.986Z,17.73
2022-10-10T23:57:46.831Z,17.10
